Terminal Aerodrome Forecast
Issued by NWS

Home | Current Version | Previous Version | Text Only | Print | Product List | Glossary On
Versions: 1 2 3 4 5 6 7 8 9 10 11 12 13 14 15 16 17 18 19
000
FTAK31 PAJN 211724
TAFAGY
TAF
PAGY 211724Z 2118/2218 21005KT P6SM BKN060
     FM212000 21015G22KT P6SM BKN060
     FM220500 21010KT P6SM -SHRA OVC040
      AMD LTD TO CLD VIS AND WIND=

USA.gov is the U.S. government's official web portal to all federal, state and local government web resources and services.